createdAt,value
2023-02-19T00:04:22.746Z,8.60
2023-02-19T00:09:27.374Z,8.73
2023-02-19T00:14:30.593Z,8.75
2023-02-19T00:19:33.956Z,8.84
2023-02-19T00:24:38.492Z,8.74
2023-02-19T00:29:41.709Z,8.85
2023-02-19T00:34:44.859Z,8.45
2023-02-19T00:39:49.885Z,8.55
2023-02-19T00:44:54.467Z,8.81
2023-02-19T00:49:57.667Z,8.70
2023-02-19T00:55:02.357Z,8.63
2023-02-19T01:00:06.787Z,8.56
2023-02-19T01:05:09.998Z,8.65
2023-02-19T01:10:14.562Z,8.63
2023-02-19T01:15:18.036Z,8.64
2023-02-19T01:20:21.242Z,8.65
2023-02-19T01:25:26.018Z,8.78
2023-02-19T01:30:29.430Z,8.82
2023-02-19T01:35:33.361Z,8.55
2023-02-19T01:40:37.862Z,8.58
2023-02-19T01:45:44.704Z,8.63
2023-02-19T01:50:52.746Z,8.81
2023-02-19T01:56:00.758Z,8.75
2023-02-19T02:01:07.526Z,8.65
2023-02-19T02:06:16.122Z,8.82
2023-02-19T02:11:22.037Z,8.70
2023-02-19T02:16:32.234Z,8.82
2023-02-19T02:21:48.814Z,8.78
2023-02-19T02:27:14.879Z,8.81
2023-02-19T02:32:26.021Z,8.96
2023-02-19T02:37:35.633Z,8.72
2023-02-19T02:42:41.220Z,8.84
2023-02-19T02:47:55.412Z,8.71
2023-02-19T02:53:19.728Z,8.84
2023-02-19T02:58:25.899Z,8.75
2023-02-19T03:03:35.039Z,8.78
2023-02-19T03:08:41.792Z,8.81
2023-02-19T03:14:02.553Z,8.79
2023-02-19T03:19:20.937Z,8.72
2023-02-19T03:24:48.209Z,8.72
2023-02-19T03:29:55.558Z,8.80
2023-02-19T03:35:04.631Z,8.83
2023-02-19T03:40:09.778Z,8.73
2023-02-19T03:45:29.822Z,8.97
2023-02-19T03:50:40.850Z,8.95
2023-02-19T03:55:49.089Z,8.98
2023-02-19T04:00:58.595Z,9.02
2023-02-19T04:06:09.451Z,8.80
2023-02-19T04:11:13.321Z,8.87
2023-02-19T04:16:22.591Z,8.99
2023-02-19T04:21:31.439Z,9.00
2023-02-19T04:26:36.189Z,8.75
2023-02-19T04:31:40.062Z,8.59
2023-02-19T04:36:44.746Z,8.69
2023-02-19T04:41:48.154Z,8.65
2023-02-19T04:46:51.405Z,8.76
2023-02-19T04:51:56.169Z,8.71
2023-02-19T04:56:59.452Z,8.70
2023-02-19T05:02:02.937Z,8.74
2023-02-19T05:07:07.556Z,8.79
2023-02-19T05:12:10.840Z,8.86
2023-02-19T05:17:13.987Z,8.92
2023-02-19T05:22:18.716Z,8.90
2023-02-19T05:27:21.987Z,8.86
2023-02-19T05:32:25.355Z,8.95
2023-02-19T05:37:30.015Z,8.91
2023-02-19T05:42:33.192Z,8.87
2023-02-19T05:47:36.746Z,8.91
2023-02-19T05:52:41.609Z,8.63
2023-02-19T05:57:47.016Z,8.69
2023-02-19T06:02:50.573Z,8.71
2023-02-19T06:07:55.426Z,8.43
2023-02-19T06:12:58.670Z,8.70
2023-02-19T06:18:02.777Z,8.58
2023-02-19T06:23:07.428Z,8.21
2023-02-19T06:28:10.620Z,8.26
2023-02-19T06:33:13.971Z,8.14
2023-02-19T06:38:18.736Z,8.22
2023-02-19T06:43:22.084Z,8.31
2023-02-19T06:48:26.488Z,8.32
2023-02-19T06:53:31.806Z,8.18
2023-02-19T06:58:35.691Z,8.21
2023-02-19T07:03:38.934Z,8.25
2023-02-19T07:08:43.860Z,8.23
2023-02-19T07:13:47.212Z,8.34
2023-02-19T07:18:50.564Z,8.28
2023-02-19T07:23:55.663Z,8.54
2023-02-19T07:28:59.112Z,8.50
2023-02-19T07:34:02.381Z,8.40
2023-02-19T07:39:09.196Z,8.70
2023-02-19T07:44:16.541Z,8.56
2023-02-19T07:49:20.101Z,8.77
2023-02-19T07:54:24.764Z,8.73
2023-02-19T07:59:27.959Z,8.73
2023-02-19T08:04:31.390Z,8.86
2023-02-19T08:09:36.594Z,8.93
2023-02-19T08:14:39.812Z,9.30
2023-02-19T08:19:43.603Z,9.35
2023-02-19T08:24:48.154Z,9.10
2023-02-19T08:29:51.533Z,9.31
2023-02-19T08:34:54.795Z,9.25
2023-02-19T08:39:59.726Z,9.27
2023-02-19T08:45:03.047Z,9.33
2023-02-19T08:50:07.385Z,9.49
2023-02-19T08:55:12.097Z,9.57
2023-02-19T09:00:16.339Z,9.46
2023-02-19T09:05:19.831Z,9.60
2023-02-19T09:10:24.355Z,9.82
2023-02-19T09:15:29.412Z,10.28
2023-02-19T09:20:32.518Z,10.48
2023-02-19T09:25:37.097Z,10.11
2023-02-19T09:30:40.450Z,10.02
2023-02-19T09:35:43.891Z,10.04
2023-02-19T09:40:49.781Z,10.74
2023-02-19T09:46:04.092Z,10.78
2023-02-19T09:51:11.964Z,10.35
2023-02-19T09:56:17.386Z,10.49
2023-02-19T10:01:21.390Z,10.35
2023-02-19T10:06:26.801Z,10.17
2023-02-19T10:11:31.360Z,10.16
2023-02-19T10:16:35.553Z,10.11
2023-02-19T10:21:39.444Z,10.17
2023-02-19T10:26:44.275Z,10.42
2023-02-19T10:31:47.599Z,10.32
2023-02-19T10:36:52.233Z,10.58
2023-02-19T10:41:57.231Z,10.49
2023-02-19T10:47:02.214Z,8.35
2023-02-19T10:52:17.719Z,8.06
2023-02-19T10:57:33.123Z,7.70
2023-02-19T11:02:36.458Z,7.44
2023-02-19T11:07:44.491Z,7.56
2023-02-19T11:12:51.783Z,7.07
2023-02-19T11:18:00.784Z,7.50
2023-02-19T11:23:14.978Z,7.53
2023-02-19T11:28:34.889Z,7.50
2023-02-19T11:33:45.876Z,7.35
2023-02-19T11:38:49.214Z,7.56
2023-02-19T11:44:12.819Z,7.60
2023-02-19T11:49:30.282Z,7.55
2023-02-19T11:54:48.798Z,7.35
2023-02-19T12:00:02.964Z,7.92
2023-02-19T12:05:42.825Z,7.83
2023-02-19T12:11:01.450Z,7.99
2023-02-19T12:16:19.017Z,7.83
2023-02-19T12:21:35.724Z,8.04
2023-02-19T12:26:48.970Z,7.71
2023-02-19T12:32:19.283Z,7.60
2023-02-19T12:37:36.438Z,7.81
2023-02-19T12:42:54.005Z,7.93
2023-02-19T12:48:05.739Z,7.68
2023-02-19T12:53:16.437Z,8.03
2023-02-19T12:58:30.348Z,8.06
2023-02-19T13:03:41.617Z,8.09
2023-02-19T13:09:05.373Z,7.89
2023-02-19T13:14:22.066Z,7.79
2023-02-19T13:19:27.228Z,7.49
2023-02-19T13:24:36.069Z,7.78
2023-02-19T13:29:53.293Z,7.63
2023-02-19T13:35:12.476Z,7.48
2023-02-19T13:40:24.050Z,7.21
2023-02-19T13:45:35.328Z,7.56
2023-02-19T13:50:40.097Z,7.75
2023-02-19T13:55:53.966Z,7.74
2023-02-19T14:00:58.025Z,7.75
2023-02-19T14:06:06.147Z,7.76
2023-02-19T14:11:09.928Z,7.71
2023-02-19T14:16:30.772Z,7.75
2023-02-19T14:21:40.103Z,7.75
2023-02-19T14:26:44.114Z,7.65
2023-02-19T14:31:48.227Z,7.58
2023-02-19T14:36:56.835Z,7.67
2023-02-19T14:42:03.482Z,7.08
2023-02-19T14:47:09.596Z,7.00
2023-02-19T14:52:21.302Z,7.35
2023-02-19T14:57:28.762Z,7.18
2023-02-19T15:02:34.545Z,7.25
2023-02-19T15:07:39.969Z,7.11
2023-02-19T15:12:47.517Z,7.17
2023-02-19T15:17:52.415Z,7.11
2023-02-19T15:22:59.643Z,7.31
2023-02-19T15:28:21.571Z,7.55
2023-02-19T15:33:27.330Z,7.46
2023-02-19T15:38:33.322Z,7.52
2023-02-19T15:43:44.664Z,7.71
2023-02-19T15:48:55.305Z,7.68
2023-02-19T15:54:10.085Z,7.39
2023-02-19T15:59:21.482Z,7.33
2023-02-19T16:04:25.293Z,7.41
2023-02-19T16:09:33.491Z,7.43
2023-02-19T16:14:38.720Z,7.21
2023-02-19T16:19:48.410Z,7.45
2023-02-19T16:24:55.781Z,7.46
2023-02-19T16:30:00.501Z,7.47
2023-02-19T16:35:06.508Z,7.35
2023-02-19T16:40:52.591Z,7.35
2023-02-19T16:45:57.627Z,7.21
2023-02-19T16:51:03.145Z,7.28
2023-02-19T16:56:07.395Z,7.33
2023-02-19T17:01:12.981Z,7.25
2023-02-19T17:06:17.909Z,7.30
2023-02-19T17:11:23.719Z,7.27
2023-02-19T17:16:41.328Z,7.23
2023-02-19T17:21:45.586Z,7.10
2023-02-19T17:26:49.462Z,7.14
2023-02-19T17:31:54.731Z,7.18
2023-02-19T17:36:59.155Z,7.15
2023-02-19T17:42:02.760Z,6.92
2023-02-19T17:47:08.117Z,6.62
2023-02-19T17:52:13.067Z,6.57
2023-02-19T17:57:18.279Z,6.63
2023-02-19T18:02:23.533Z,6.53
2023-02-19T18:07:29.642Z,6.76
2023-02-19T18:12:34.457Z,6.83
2023-02-19T18:17:39.850Z,6.77
2023-02-19T18:22:43.511Z,6.82
2023-02-19T18:27:47.929Z,6.89
2023-02-19T18:32:53.445Z,6.77
2023-02-19T18:37:57.086Z,6.86
2023-02-19T18:43:00.683Z,6.83
2023-02-19T18:48:06.961Z,6.91
2023-02-19T18:53:09.973Z,6.49
2023-02-19T18:58:13.886Z,6.78
2023-02-19T19:03:19.148Z,6.83
2023-02-19T19:08:22.342Z,6.89
2023-02-19T19:13:25.794Z,6.88
2023-02-19T19:18:31.693Z,6.85
2023-02-19T19:23:38.058Z,6.69
2023-02-19T19:28:44.598Z,6.39
2023-02-19T19:33:49.923Z,6.61
2023-02-19T19:38:58.676Z,6.85
2023-02-19T19:44:07.152Z,6.55
2023-02-19T19:49:12.153Z,6.38
2023-02-19T19:54:16.038Z,6.20
2023-02-19T19:59:19.797Z,6.17
2023-02-19T20:04:26.010Z,6.01
2023-02-19T20:09:29.431Z,5.92
2023-02-19T20:14:33.792Z,5.97
2023-02-19T20:19:38.498Z,6.05
2023-02-19T20:24:41.742Z,5.85
2023-02-19T20:29:47.653Z,5.78
2023-02-19T20:34:52.346Z,5.75
2023-02-19T20:39:55.895Z,5.68
2023-02-19T20:44:59.421Z,5.74
2023-02-19T20:50:04.263Z,5.72
2023-02-19T20:55:08.794Z,5.45
2023-02-19T21:00:15.986Z,5.39
2023-02-19T21:05:21.909Z,5.60
2023-02-19T21:10:26.101Z,5.58
2023-02-19T21:15:29.323Z,5.48
2023-02-19T21:20:35.579Z,5.55
2023-02-19T21:25:40.455Z,5.46
2023-02-19T21:30:45.364Z,5.42
2023-02-19T21:35:50.535Z,5.52
2023-02-19T21:40:53.922Z,5.61
2023-02-19T21:45:57.789Z,5.57
2023-02-19T21:51:02.601Z,5.57
2023-02-19T21:56:06.550Z,5.38
2023-02-19T22:01:10.040Z,5.73
2023-02-19T22:06:14.984Z,5.70
2023-02-19T22:11:18.257Z,5.87
2023-02-19T22:16:21.940Z,5.98
2023-02-19T22:21:27.899Z,6.03
2023-02-19T22:26:33.321Z,6.02
2023-02-19T22:31:36.937Z,6.26
2023-02-19T22:36:41.583Z,6.38
2023-02-19T22:41:45.454Z,6.29
2023-02-19T22:46:50.582Z,6.39
2023-02-19T22:51:57.369Z,6.42
2023-02-19T22:57:00.472Z,6.46
2023-02-19T23:02:03.718Z,6.62
2023-02-19T23:07:08.561Z,6.85
2023-02-19T23:12:12.557Z,6.83
2023-02-19T23:17:15.693Z,6.72
2023-02-19T23:22:20.558Z,6.67
2023-02-19T23:27:24.531Z,6.77
2023-02-19T23:32:27.660Z,6.80
2023-02-19T23:37:32.247Z,6.88
2023-02-19T23:42:35.608Z,6.82
2023-02-19T23:47:38.846Z,6.75
2023-02-19T23:52:43.538Z,6.78
2023-02-19T23:57:46.840Z,6.85
